createdAt,value
2017-01-11T00:00:10.512Z,0
2017-01-11T00:00:51.000Z,0
2017-01-11T00:01:31.482Z,0
2017-01-11T00:02:12.102Z,0
2017-01-11T00:02:52.472Z,0
2017-01-11T00:03:32.999Z,0
2017-01-11T00:04:13.477Z,0
2017-01-11T00:04:53.973Z,0
2017-01-11T00:05:34.465Z,0
2017-01-11T00:06:14.973Z,0
2017-01-11T00:06:55.466Z,0
2017-01-11T00:07:35.959Z,0
2017-01-11T00:08:16.465Z,0
2017-01-11T00:08:56.958Z,0
2017-01-11T00:09:37.473Z,0
2017-01-11T00:10:17.959Z,0
2017-01-11T00:10:58.463Z,0
2017-01-11T00:11:38.961Z,0
2017-01-11T00:12:19.445Z,0
2017-01-11T00:12:59.930Z,0
2017-01-11T00:13:40.414Z,0
2017-01-11T00:14:20.907Z,0
2017-01-11T00:15:01.409Z,0
2017-01-11T00:15:41.912Z,0
2017-01-11T00:16:22.405Z,0
2017-01-11T00:17:02.909Z,0
2017-01-11T00:17:43.399Z,0
2017-01-11T00:18:23.908Z,0
2017-01-11T00:19:04.405Z,0
2017-01-11T00:19:44.905Z,0
2017-01-11T00:20:25.397Z,0
2017-01-11T00:21:05.877Z,0
2017-01-11T00:21:46.361Z,0
2017-01-11T00:22:26.853Z,0
2017-01-11T00:23:07.351Z,0
2017-01-11T00:23:47.841Z,0
2017-01-11T00:24:28.351Z,0
2017-01-11T00:25:08.835Z,0
2017-01-11T00:25:49.350Z,0
2017-01-11T00:26:29.840Z,0
2017-01-11T00:27:10.342Z,0
2017-01-11T00:27:50.836Z,0
2017-01-11T00:28:31.348Z,0
2017-01-11T00:29:11.835Z,0
2017-01-11T00:29:52.322Z,0
2017-01-11T00:30:32.838Z,0
2017-01-11T00:31:13.574Z,0
2017-01-11T00:31:54.043Z,0
2017-01-11T00:32:34.545Z,0
2017-01-11T00:33:15.040Z,0
2017-01-11T00:33:55.548Z,0
2017-01-11T00:34:36.033Z,0
2017-01-11T00:35:16.523Z,0
2017-01-11T00:35:57.011Z,0
2017-01-11T00:36:37.516Z,0
2017-01-11T00:37:18.001Z,0
2017-01-11T00:37:58.484Z,0
2017-01-11T00:38:39.004Z,0
2017-01-11T00:39:19.476Z,0
2017-01-11T00:39:59.971Z,0
2017-01-11T00:40:40.487Z,0
2017-01-11T00:41:20.984Z,0
2017-01-11T00:42:01.475Z,0
2017-01-11T00:42:41.960Z,0
2017-01-11T00:43:22.450Z,0
2017-01-11T00:44:02.946Z,0
2017-01-11T00:44:43.431Z,0
2017-01-11T00:45:23.922Z,0
2017-01-11T00:46:04.403Z,0
2017-01-11T00:46:44.886Z,0
2017-01-11T00:47:25.376Z,0
2017-01-11T00:48:05.876Z,0
2017-01-11T00:48:46.367Z,0
2017-01-11T00:49:26.877Z,0
2017-01-11T00:50:07.375Z,0
2017-01-11T00:50:47.870Z,0
2017-01-11T00:51:28.361Z,0
2017-01-11T00:52:08.854Z,0
2017-01-11T00:52:49.348Z,0
2017-01-11T00:53:29.840Z,0
2017-01-11T00:54:10.325Z,0
2017-01-11T00:54:50.811Z,0
2017-01-11T00:55:31.300Z,0
2017-01-11T00:56:11.816Z,0
2017-01-11T00:56:52.319Z,0
2017-01-11T00:57:32.809Z,0
2017-01-11T00:58:13.313Z,0
2017-01-11T00:58:53.815Z,0
2017-01-11T00:59:34.309Z,0
2017-01-11T01:00:14.835Z,0
2017-01-11T01:00:55.339Z,0
2017-01-11T01:01:35.828Z,0
2017-01-11T01:02:16.310Z,0
2017-01-11T01:02:56.799Z,0
2017-01-11T01:03:37.287Z,0
2017-01-11T01:04:17.779Z,0
2017-01-11T01:04:58.274Z,0
2017-01-11T01:05:38.761Z,0
2017-01-11T01:06:19.232Z,0
2017-01-11T01:06:59.958Z,0
2017-01-11T01:07:40.442Z,0
2017-01-11T01:08:20.925Z,0
2017-01-11T01:09:01.414Z,0
2017-01-11T01:09:41.909Z,0
2017-01-11T01:10:22.407Z,0
2017-01-11T01:11:02.899Z,0
2017-01-11T01:11:43.389Z,0
2017-01-11T01:12:23.907Z,0
2017-01-11T01:13:04.400Z,0
2017-01-11T01:13:44.893Z,0
2017-01-11T01:14:25.406Z,0
2017-01-11T01:15:05.897Z,0
2017-01-11T01:15:46.405Z,0
2017-01-11T01:16:26.873Z,0
2017-01-11T01:17:07.364Z,0
2017-01-11T01:17:47.856Z,0
2017-01-11T01:18:28.343Z,0
2017-01-11T01:19:08.852Z,0
2017-01-11T01:19:49.344Z,0
2017-01-11T01:20:29.829Z,0
2017-01-11T01:21:10.342Z,0
2017-01-11T01:21:50.828Z,0
2017-01-11T01:22:31.338Z,0
2017-01-11T01:23:11.847Z,0
2017-01-11T01:23:52.346Z,0
2017-01-11T01:24:32.845Z,0
2017-01-11T01:25:13.338Z,0
2017-01-11T01:25:53.848Z,0
2017-01-11T01:26:34.317Z,0
2017-01-11T01:27:14.843Z,0
2017-01-11T01:27:55.332Z,0
2017-01-11T01:28:35.817Z,0
2017-01-11T01:29:16.310Z,0
2017-01-11T01:29:56.805Z,0
2017-01-11T01:30:37.292Z,0
2017-01-11T01:31:17.763Z,0
2017-01-11T01:31:58.286Z,0
2017-01-11T01:32:38.765Z,0
2017-01-11T01:33:19.283Z,0
2017-01-11T01:33:59.785Z,0
2017-01-11T01:34:40.286Z,0
2017-01-11T01:35:20.774Z,0
2017-01-11T01:36:01.284Z,0
2017-01-11T01:36:41.779Z,0
2017-01-11T01:37:22.259Z,0
2017-01-11T01:38:02.750Z,0
2017-01-11T01:38:43.248Z,0
2017-01-11T01:39:23.732Z,0
2017-01-11T01:40:04.228Z,0
2017-01-11T01:40:44.724Z,0
2017-01-11T01:41:25.219Z,0
2017-01-11T01:42:05.703Z,0
2017-01-11T01:42:46.186Z,0
2017-01-11T01:43:26.689Z,0
2017-01-11T01:44:07.176Z,0
2017-01-11T01:44:47.674Z,0
2017-01-11T01:45:28.168Z,0
2017-01-11T01:46:08.666Z,0
2017-01-11T01:46:49.155Z,0
2017-01-11T01:47:29.660Z,0
2017-01-11T01:48:10.153Z,0
2017-01-11T01:48:50.659Z,0
2017-01-11T01:49:31.147Z,0
2017-01-11T01:50:11.628Z,0
2017-01-11T01:50:52.121Z,0
2017-01-11T01:51:32.613Z,0
2017-01-11T01:52:13.105Z,0
2017-01-11T01:52:53.594Z,0
2017-01-11T01:53:34.073Z,0
2017-01-11T01:54:14.568Z,0
2017-01-11T01:54:55.064Z,0
2017-01-11T01:55:35.561Z,0
2017-01-11T01:56:16.063Z,0
2017-01-11T01:56:56.551Z,0
2017-01-11T01:57:37.040Z,0
2017-01-11T01:58:17.561Z,0
2017-01-11T01:58:58.056Z,0
2017-01-11T01:59:38.545Z,0
2017-01-11T02:00:19.031Z,0
2017-01-11T02:00:59.513Z,0
2017-01-11T02:01:40.007Z,0
2017-01-11T02:02:20.505Z,0
2017-01-11T02:03:00.994Z,0
2017-01-11T02:03:41.480Z,0
2017-01-11T02:04:21.986Z,0
2017-01-11T02:05:02.507Z,0
2017-01-11T02:05:42.987Z,0
2017-01-11T02:06:23.473Z,0
2017-01-11T02:07:03.956Z,0
2017-01-11T02:07:44.449Z,0
2017-01-11T02:08:24.944Z,0
2017-01-11T02:09:05.433Z,0
2017-01-11T02:09:45.919Z,0
2017-01-11T02:10:26.401Z,0
2017-01-11T02:11:06.895Z,0
2017-01-11T02:11:47.391Z,0
2017-01-11T02:12:27.886Z,0
2017-01-11T02:13:08.376Z,0
2017-01-11T02:13:48.874Z,0
2017-01-11T02:14:29.365Z,0
2017-01-11T02:15:09.859Z,0
2017-01-11T02:15:50.357Z,0
2017-01-11T02:16:30.846Z,0
2017-01-11T02:17:11.356Z,0
2017-01-11T02:17:51.853Z,0
2017-01-11T02:18:32.352Z,0
2017-01-11T02:19:12.845Z,0
2017-01-11T02:19:53.349Z,0
2017-01-11T02:20:33.841Z,0
2017-01-11T02:21:14.333Z,0
2017-01-11T02:21:54.833Z,0
2017-01-11T02:22:35.315Z,0
2017-01-11T02:23:15.801Z,0
2017-01-11T02:23:56.286Z,0
2017-01-11T02:24:36.791Z,0
2017-01-11T02:25:17.277Z,0
2017-01-11T02:25:57.771Z,0
2017-01-11T02:26:38.270Z,0
2017-01-11T02:27:18.765Z,0
2017-01-11T02:27:59.271Z,0
2017-01-11T02:28:39.765Z,0
2017-01-11T02:29:20.272Z,0
2017-01-11T02:30:00.769Z,0
2017-01-11T02:30:41.267Z,0
2017-01-11T02:31:21.768Z,0
2017-01-11T02:32:02.263Z,0
2017-01-11T02:32:42.761Z,0
2017-01-11T02:33:23.271Z,0
2017-01-11T02:34:03.789Z,0
2017-01-11T02:34:44.271Z,0
2017-01-11T02:35:24.765Z,0
2017-01-11T02:36:05.257Z,0
2017-01-11T02:36:45.751Z,0
2017-01-11T02:37:26.237Z,0
2017-01-11T02:38:06.723Z,0
2017-01-11T02:38:47.258Z,0
2017-01-11T02:39:27.747Z,0
2017-01-11T02:40:08.288Z,0
2017-01-11T02:40:48.758Z,0
2017-01-11T02:41:29.261Z,0
2017-01-11T02:42:09.741Z,0
2017-01-11T02:42:50.230Z,0
2017-01-11T02:43:30.713Z,0
2017-01-11T02:44:11.205Z,0
2017-01-11T02:44:51.700Z,0
2017-01-11T02:45:32.193Z,0
2017-01-11T02:46:12.679Z,0
2017-01-11T02:46:53.191Z,0
2017-01-11T02:47:33.673Z,0
2017-01-11T02:48:14.323Z,0
2017-01-11T02:48:54.841Z,0
2017-01-11T02:49:35.330Z,0
2017-01-11T02:50:15.812Z,0
2017-01-11T02:50:56.322Z,0
2017-01-11T02:51:36.824Z,0
2017-01-11T02:52:17.313Z,0
2017-01-11T02:52:57.802Z,0
2017-01-11T02:53:38.296Z,0
2017-01-11T02:54:18.791Z,0
2017-01-11T02:54:59.279Z,0
2017-01-11T02:55:39.795Z,0
2017-01-11T02:56:20.287Z,0
2017-01-11T02:57:00.796Z,0
2017-01-11T02:57:41.277Z,0
2017-01-11T02:58:21.780Z,0
2017-01-11T02:59:02.268Z,0
2017-01-11T02:59:42.753Z,0
2017-01-11T03:00:23.241Z,0
2017-01-11T03:01:03.723Z,0
2017-01-11T03:01:44.218Z,0
2017-01-11T03:02:24.733Z,0
2017-01-11T03:03:05.236Z,0
2017-01-11T03:03:45.725Z,0
2017-01-11T03:04:26.213Z,0
2017-01-11T03:05:06.691Z,0
2017-01-11T03:05:47.184Z,0
2017-01-11T03:06:27.684Z,0
2017-01-11T03:07:08.170Z,0
2017-01-11T03:07:48.684Z,0
2017-01-11T03:08:29.171Z,0
2017-01-11T03:09:09.680Z,0
2017-01-11T03:09:50.182Z,0
2017-01-11T03:10:30.680Z,0
2017-01-11T03:11:11.171Z,0
2017-01-11T03:11:51.679Z,0
2017-01-11T03:12:32.173Z,0
2017-01-11T03:13:12.673Z,0
2017-01-11T03:13:53.162Z,0
2017-01-11T03:14:33.678Z,0
2017-01-11T03:15:14.167Z,0
2017-01-11T03:15:54.649Z,0
2017-01-11T03:16:35.132Z,0
2017-01-11T03:17:15.637Z,0
2017-01-11T03:17:56.125Z,0
2017-01-11T03:18:36.623Z,0
2017-01-11T03:19:17.186Z,0
2017-01-11T03:19:57.676Z,0
2017-01-11T03:20:38.166Z,0
2017-01-11T03:21:18.666Z,0
2017-01-11T03:21:59.156Z,0
2017-01-11T03:22:39.648Z,0
2017-01-11T03:23:20.155Z,0
2017-01-11T03:24:00.643Z,0
2017-01-11T03:26:28.632Z,0
2017-01-11T03:27:09.126Z,0
2017-01-11T03:27:49.632Z,0
2017-01-11T03:28:30.124Z,0
2017-01-11T03:29:10.819Z,0
2017-01-11T03:29:51.331Z,0
2017-01-11T03:30:31.813Z,0
2017-01-11T03:31:12.294Z,0
2017-01-11T03:31:52.783Z,0
2017-01-11T03:32:33.286Z,0
2017-01-11T03:33:13.783Z,0
2017-01-11T03:33:54.287Z,0
2017-01-11T03:34:34.771Z,0
2017-01-11T03:35:15.257Z,0
2017-01-11T03:35:55.736Z,0
2017-01-11T03:36:36.231Z,0
2017-01-11T03:37:16.729Z,0
2017-01-11T03:37:57.206Z,0
2017-01-11T03:38:37.692Z,0
2017-01-11T03:39:18.181Z,0
2017-01-11T03:39:58.662Z,0
2017-01-11T03:40:39.174Z,0
2017-01-11T03:41:19.660Z,0
2017-01-11T03:42:00.156Z,0
2017-01-11T03:42:40.678Z,0
2017-01-11T03:43:21.173Z,0
2017-01-11T03:44:01.661Z,0
2017-01-11T03:44:42.148Z,0
2017-01-11T03:45:22.631Z,0
2017-01-11T03:46:03.132Z,0
2017-01-11T03:46:43.620Z,0
2017-01-11T03:47:24.109Z,0
2017-01-11T03:48:04.619Z,0
2017-01-11T03:48:45.115Z,0
2017-01-11T03:49:25.617Z,0
2017-01-11T03:50:06.103Z,0
2017-01-11T03:50:46.620Z,0
2017-01-11T03:51:27.103Z,0
2017-01-11T03:52:07.618Z,0
2017-01-11T03:52:48.101Z,0
2017-01-11T03:53:28.593Z,0
2017-01-11T03:54:09.086Z,0
2017-01-11T03:54:49.576Z,0
2017-01-11T03:55:30.066Z,0
2017-01-11T03:56:10.551Z,0
2017-01-11T03:56:51.037Z,0
2017-01-11T03:57:31.520Z,0
2017-01-11T03:58:12.023Z,0
2017-01-11T03:58:52.509Z,0
2017-01-11T03:59:32.997Z,0
2017-01-11T04:00:13.486Z,0
2017-01-11T04:00:54.009Z,0
2017-01-11T04:01:34.503Z,0
2017-01-11T04:02:14.997Z,0
2017-01-11T04:02:55.481Z,0
2017-01-11T04:03:35.983Z,0
2017-01-11T04:04:16.472Z,0
2017-01-11T04:04:57.129Z,0
2017-01-11T04:07:30.255Z,0
2017-01-11T04:08:10.738Z,0
2017-01-11T04:08:51.220Z,0
2017-01-11T04:09:31.822Z,0
2017-01-11T04:10:12.310Z,0
2017-01-11T04:10:52.798Z,0
2017-01-11T04:11:33.282Z,0
2017-01-11T04:12:13.796Z,0
2017-01-11T04:12:54.278Z,0
2017-01-11T04:13:34.770Z,0
2017-01-11T04:14:15.260Z,0
2017-01-11T04:14:55.756Z,0
2017-01-11T04:15:36.241Z,0
2017-01-11T04:16:16.727Z,0
2017-01-11T04:16:57.214Z,0
2017-01-11T04:17:37.697Z,0
2017-01-11T04:18:18.201Z,0
2017-01-11T04:18:58.688Z,0
2017-01-11T04:19:39.183Z,0
2017-01-11T04:20:19.686Z,0
2017-01-11T04:21:00.171Z,0
2017-01-11T04:21:40.660Z,0
2017-01-11T04:22:21.149Z,0
2017-01-11T04:23:01.633Z,0
2017-01-11T04:23:42.132Z,0
2017-01-11T04:24:22.610Z,0
2017-01-11T04:25:03.099Z,0
2017-01-11T04:25:43.586Z,0
2017-01-11T04:26:24.082Z,0
2017-01-11T04:27:04.579Z,0
2017-01-11T04:27:45.065Z,0
2017-01-11T04:28:25.556Z,0
2017-01-11T04:29:06.056Z,0
2017-01-11T04:29:46.538Z,0
2017-01-11T04:30:27.025Z,0
2017-01-11T04:31:07.512Z,0
2017-01-11T04:31:47.998Z,0
2017-01-11T04:32:28.479Z,0
2017-01-11T04:33:08.962Z,0
2017-01-11T04:33:49.471Z,0
2017-01-11T04:34:29.969Z,0
2017-01-11T04:35:10.465Z,0
2017-01-11T04:35:50.938Z,0
2017-01-11T04:36:31.467Z,0
2017-01-11T04:37:11.946Z,0
2017-01-11T04:37:52.428Z,0
2017-01-11T04:38:32.935Z,0
2017-01-11T04:39:13.426Z,0
2017-01-11T04:39:53.914Z,0
2017-01-11T04:40:34.407Z,0
2017-01-11T04:41:14.915Z,0
2017-01-11T04:41:55.399Z,0
2017-01-11T04:42:35.887Z,0
2017-01-11T04:43:16.366Z,0
2017-01-11T04:43:56.863Z,0
2017-01-11T04:44:37.355Z,0
2017-01-11T04:45:17.971Z,0
2017-01-11T04:45:58.459Z,0
2017-01-11T04:46:38.949Z,0
2017-01-11T04:47:19.436Z,0
2017-01-11T04:47:59.915Z,0
2017-01-11T04:48:40.419Z,0
2017-01-11T04:49:20.906Z,0
2017-01-11T04:50:01.395Z,0
2017-01-11T04:50:41.878Z,0
2017-01-11T04:51:22.358Z,0
2017-01-11T04:52:02.848Z,0
2017-01-11T04:52:43.344Z,0
2017-01-11T04:53:23.844Z,0
2017-01-11T04:54:04.346Z,0
2017-01-11T04:54:44.837Z,0
2017-01-11T04:55:25.321Z,0
2017-01-11T04:56:05.824Z,0
2017-01-11T04:56:46.310Z,0
2017-01-11T04:57:26.804Z,0
2017-01-11T04:58:07.294Z,0
2017-01-11T04:58:47.793Z,0
2017-01-11T04:59:28.281Z,0
2017-01-11T05:00:08.795Z,0
2017-01-11T05:00:49.280Z,0
2017-01-11T05:01:29.767Z,0
2017-01-11T05:02:10.253Z,0
2017-01-11T05:02:50.756Z,0
2017-01-11T05:03:31.236Z,0
2017-01-11T05:04:11.724Z,0
2017-01-11T05:04:52.214Z,0
2017-01-11T05:05:32.692Z,0
2017-01-11T05:06:13.202Z,0
2017-01-11T05:06:53.688Z,0
2017-01-11T05:07:34.181Z,0
2017-01-11T05:08:14.681Z,0
2017-01-11T05:08:55.170Z,0
2017-01-11T05:09:35.681Z,0
2017-01-11T05:10:16.176Z,0
2017-01-11T05:10:56.680Z,0
2017-01-11T05:11:37.175Z,0
2017-01-11T05:12:17.661Z,0
2017-01-11T05:12:58.169Z,0
2017-01-11T05:13:38.654Z,0
2017-01-11T05:14:19.133Z,0
2017-01-11T05:14:59.629Z,0
2017-01-11T05:15:40.331Z,0
2017-01-11T05:16:20.824Z,0
2017-01-11T05:17:01.333Z,0
2017-01-11T05:17:41.822Z,0
2017-01-11T05:18:22.310Z,0
2017-01-11T05:19:02.817Z,0
2017-01-11T05:19:43.319Z,0
2017-01-11T05:20:23.814Z,0
2017-01-11T05:21:04.319Z,0
2017-01-11T05:21:44.811Z,0
2017-01-11T05:22:25.298Z,0
2017-01-11T05:23:05.785Z,0
2017-01-11T05:23:46.296Z,0
2017-01-11T05:24:26.777Z,0
2017-01-11T05:25:07.272Z,0
2017-01-11T05:25:47.764Z,0
2017-01-11T05:26:28.265Z,0
2017-01-11T05:27:08.768Z,0
2017-01-11T05:27:49.322Z,0
2017-01-11T05:28:29.811Z,0
2017-01-11T05:29:10.294Z,0
2017-01-11T05:29:50.780Z,0
2017-01-11T05:30:31.284Z,0
2017-01-11T05:31:11.790Z,0
2017-01-11T05:31:52.384Z,0
2017-01-11T05:32:32.866Z,0
2017-01-11T05:33:13.354Z,0
2017-01-11T05:33:53.840Z,0
2017-01-11T05:34:34.319Z,0
2017-01-11T05:35:14.803Z,0
2017-01-11T05:35:55.307Z,0
2017-01-11T05:36:35.808Z,0
2017-01-11T05:37:16.307Z,0
2017-01-11T05:37:56.801Z,0
2017-01-11T05:38:37.303Z,0
2017-01-11T05:39:17.803Z,0
2017-01-11T05:39:58.304Z,0
2017-01-11T05:40:38.800Z,0
2017-01-11T05:41:19.307Z,0
2017-01-11T05:41:59.795Z,0
2017-01-11T05:42:40.280Z,0
2017-01-11T05:43:20.763Z,0
2017-01-11T05:44:01.255Z,0
2017-01-11T05:44:41.750Z,0
2017-01-11T05:45:22.251Z,0
2017-01-11T05:46:02.746Z,0
2017-01-11T05:46:43.250Z,0
2017-01-11T05:47:23.745Z,0
2017-01-11T05:48:04.248Z,0
2017-01-11T05:48:44.742Z,0
2017-01-11T05:49:25.247Z,0
2017-01-11T05:50:05.741Z,0
2017-01-11T05:50:46.236Z,0
2017-01-11T05:52:59.147Z,0
2017-01-11T05:53:39.639Z,0
2017-01-11T05:54:20.121Z,0
2017-01-11T05:55:00.628Z,0
2017-01-11T05:55:41.105Z,0
2017-01-11T05:56:21.598Z,0
2017-01-11T05:57:02.078Z,0
2017-01-11T05:57:42.573Z,0
2017-01-11T05:58:23.069Z,0
2017-01-11T05:59:03.556Z,0
2017-01-11T05:59:44.042Z,0
2017-01-11T06:00:24.528Z,0
2017-01-11T06:01:05.025Z,0
2017-01-11T06:01:45.520Z,0
2017-01-11T06:02:26.014Z,0
2017-01-11T06:03:06.500Z,0
2017-01-11T06:03:46.999Z,0
2017-01-11T06:04:27.482Z,0
2017-01-11T06:05:07.969Z,0
2017-01-11T06:05:48.449Z,0
2017-01-11T06:06:28.943Z,0
2017-01-11T06:07:09.444Z,0
2017-01-11T06:07:49.917Z,0
2017-01-11T06:08:30.409Z,0
2017-01-11T06:09:10.899Z,0
2017-01-11T06:09:51.391Z,0
2017-01-11T06:10:31.875Z,0
2017-01-11T06:11:12.382Z,0
2017-01-11T06:11:52.887Z,0
2017-01-11T06:12:33.385Z,0
2017-01-11T06:13:13.881Z,0
2017-01-11T06:13:54.369Z,0
2017-01-11T06:14:34.847Z,0
2017-01-11T06:15:15.334Z,0
2017-01-11T06:15:55.817Z,0
2017-01-11T06:16:36.307Z,0
2017-01-11T06:17:16.788Z,0
2017-01-11T06:17:57.291Z,0
2017-01-11T06:18:37.778Z,0
2017-01-11T06:19:18.276Z,0
2017-01-11T06:19:58.783Z,0
2017-01-11T06:20:39.265Z,0
2017-01-11T06:21:19.743Z,0
2017-01-11T06:22:00.411Z,0
2017-01-11T06:22:40.927Z,0
2017-01-11T06:23:21.423Z,0
2017-01-11T06:24:01.968Z,0
2017-01-11T06:24:42.531Z,0
2017-01-11T06:25:23.024Z,0
2017-01-11T06:26:03.529Z,0
2017-01-11T06:26:44.021Z,0
2017-01-11T06:27:24.530Z,0
2017-01-11T06:28:05.011Z,0
2017-01-11T06:28:45.490Z,0
2017-01-11T06:29:25.977Z,0
2017-01-11T06:30:06.460Z,0
2017-01-11T06:30:46.959Z,0
2017-01-11T06:31:27.457Z,0
2017-01-11T06:32:07.946Z,0
2017-01-11T06:32:48.424Z,0
2017-01-11T06:33:28.886Z,0
2017-01-11T06:34:09.380Z,0
2017-01-11T06:34:49.866Z,0
2017-01-11T06:35:30.352Z,0
2017-01-11T06:36:10.836Z,0
2017-01-11T06:36:51.317Z,0
2017-01-11T06:37:31.813Z,0
2017-01-11T06:38:12.308Z,0
2017-01-11T06:38:52.807Z,0
2017-01-11T06:39:33.307Z,0
2017-01-11T06:40:13.792Z,0
2017-01-11T06:40:54.275Z,0
2017-01-11T06:41:34.767Z,0
2017-01-11T06:42:15.288Z,0
2017-01-11T06:42:55.768Z,0
2017-01-11T06:43:36.257Z,0
2017-01-11T06:44:16.749Z,0
2017-01-11T06:44:57.248Z,0
2017-01-11T06:45:37.749Z,0
2017-01-11T06:46:18.230Z,0
2017-01-11T06:46:58.713Z,0
2017-01-11T06:47:39.202Z,0
2017-01-11T06:48:19.698Z,0
2017-01-11T06:49:00.195Z,0
2017-01-11T06:49:40.692Z,0
2017-01-11T06:50:21.176Z,0
2017-01-11T06:51:01.673Z,0
2017-01-11T06:51:42.159Z,0
2017-01-11T06:52:22.647Z,0
2017-01-11T06:53:03.140Z,0
2017-01-11T06:53:43.638Z,0
2017-01-11T06:54:24.117Z,0
2017-01-11T06:55:04.603Z,0
2017-01-11T06:55:45.091Z,0
2017-01-11T06:56:25.577Z,0
2017-01-11T06:57:06.065Z,0
2017-01-11T06:57:46.561Z,0
2017-01-11T06:58:27.048Z,0
2017-01-11T06:59:07.544Z,0
2017-01-11T06:59:48.019Z,0
2017-01-11T07:00:28.512Z,4
2017-01-11T07:01:09.011Z,4
2017-01-11T07:01:49.495Z,4
2017-01-11T07:02:29.983Z,4
2017-01-11T07:03:10.476Z,4
2017-01-11T07:03:50.978Z,4
2017-01-11T07:04:32.460Z,4
2017-01-11T07:05:11.993Z,4
2017-01-11T07:05:52.483Z,4
2017-01-11T07:06:32.978Z,4
2017-01-11T07:07:13.463Z,4
2017-01-11T07:07:53.979Z,4
2017-01-11T07:08:34.479Z,8
2017-01-11T07:09:14.973Z,8
2017-01-11T07:09:55.461Z,8
2017-01-11T07:10:35.947Z,8
2017-01-11T07:11:16.434Z,8
2017-01-11T07:11:56.922Z,8
2017-01-11T07:12:37.416Z,8
2017-01-11T07:13:17.922Z,8
2017-01-11T07:13:59.099Z,8
2017-01-11T07:14:40.732Z,8
2017-01-11T07:15:21.243Z,8
2017-01-11T07:16:02.294Z,12
2017-01-11T07:16:42.777Z,12
2017-01-11T07:17:23.268Z,8
2017-01-11T07:18:03.771Z,12
2017-01-11T07:18:44.252Z,16
2017-01-11T07:19:24.744Z,16
2017-01-11T07:20:05.236Z,16
2017-01-11T07:20:45.735Z,20
2017-01-11T07:21:26.220Z,20
2017-01-11T07:22:06.720Z,24
2017-01-11T07:22:47.216Z,24
2017-01-11T07:23:27.707Z,24
2017-01-11T07:24:08.195Z,32
2017-01-11T07:24:48.713Z,36
2017-01-11T07:25:29.207Z,44
2017-01-11T07:26:10.514Z,36
2017-01-11T07:26:51.007Z,32
2017-01-11T07:27:31.484Z,32
2017-01-11T07:28:11.964Z,28
2017-01-11T07:28:52.448Z,40
2017-01-11T07:29:32.937Z,44
2017-01-11T07:30:13.438Z,36
2017-01-11T07:30:53.926Z,32
2017-01-11T07:31:34.420Z,32
2017-01-11T07:32:14.916Z,40
2017-01-11T07:32:55.387Z,48
2017-01-11T07:33:35.882Z,44
2017-01-11T07:34:16.371Z,44
2017-01-11T07:34:56.858Z,48
2017-01-11T07:35:37.370Z,48
2017-01-11T07:36:17.863Z,48
2017-01-11T07:36:58.369Z,44
2017-01-11T07:37:38.855Z,40
2017-01-11T07:38:19.366Z,40
2017-01-11T07:38:59.857Z,36
2017-01-11T07:39:40.357Z,44
2017-01-11T07:40:20.850Z,48
2017-01-11T07:41:01.333Z,48
2017-01-11T07:41:42.185Z,64
2017-01-11T07:42:22.669Z,56
2017-01-11T07:43:03.155Z,48
2017-01-11T07:43:43.646Z,44
2017-01-11T07:44:24.154Z,56
2017-01-11T07:45:04.635Z,72
2017-01-11T07:45:45.123Z,84
2017-01-11T07:46:25.631Z,80
2017-01-11T07:47:06.123Z,76
2017-01-11T07:47:46.614Z,64
2017-01-11T07:48:27.106Z,80
2017-01-11T07:49:07.594Z,88
2017-01-11T07:49:48.110Z,104
2017-01-11T07:50:28.606Z,104
2017-01-11T07:51:09.157Z,92
2017-01-11T07:51:49.660Z,104
2017-01-11T07:52:30.144Z,108
2017-01-11T07:53:10.640Z,116
2017-01-11T07:53:51.172Z,136
2017-01-11T07:54:31.659Z,120
2017-01-11T07:55:12.161Z,100
2017-01-11T07:55:52.656Z,108
2017-01-11T07:56:33.151Z,104
2017-01-11T07:57:13.655Z,100
2017-01-11T07:57:54.146Z,120
2017-01-11T07:58:34.620Z,116
2017-01-11T07:59:15.105Z,112
2017-01-11T07:59:55.600Z,116
2017-01-11T08:00:36.098Z,132
2017-01-11T08:01:16.598Z,124
2017-01-11T08:01:57.097Z,112
2017-01-11T08:02:37.585Z,120
2017-01-11T08:03:18.072Z,128
2017-01-11T08:03:58.555Z,140
2017-01-11T08:04:39.060Z,128
2017-01-11T08:05:19.560Z,120
2017-01-11T08:06:00.060Z,112
2017-01-11T08:06:40.565Z,124
2017-01-11T08:07:21.059Z,148
2017-01-11T08:08:01.549Z,152
2017-01-11T08:08:42.054Z,136
2017-01-11T08:09:22.541Z,144
2017-01-11T08:10:03.031Z,124
2017-01-11T08:10:43.520Z,128
2017-01-11T08:11:24.017Z,140
2017-01-11T08:12:04.533Z,140
2017-01-11T08:12:45.022Z,184
2017-01-11T08:13:25.510Z,240
2017-01-11T08:14:05.990Z,252
2017-01-11T08:14:46.489Z,188
2017-01-11T08:15:27.022Z,140
2017-01-11T08:16:07.530Z,128
2017-01-11T08:16:48.053Z,132
2017-01-11T08:17:28.545Z,120
2017-01-11T08:18:09.033Z,112
2017-01-11T08:18:49.533Z,120
2017-01-11T08:19:30.027Z,112
2017-01-11T08:20:10.537Z,116
2017-01-11T08:20:52.034Z,80
2017-01-11T08:21:32.521Z,56
2017-01-11T08:22:13.006Z,64
2017-01-11T08:22:53.497Z,80
2017-01-11T08:23:34.010Z,76
2017-01-11T08:24:14.516Z,76
2017-01-11T08:24:55.005Z,64
2017-01-11T08:25:35.501Z,60
2017-01-11T08:26:15.996Z,60
2017-01-11T08:26:56.500Z,52
2017-01-11T08:27:36.998Z,52
2017-01-11T08:28:17.488Z,48
2017-01-11T08:28:57.971Z,36
2017-01-11T08:29:38.497Z,40
2017-01-11T08:30:18.991Z,44
2017-01-11T08:30:59.493Z,40
2017-01-11T08:31:39.998Z,40
2017-01-11T08:32:20.478Z,44
2017-01-11T08:33:00.963Z,40
2017-01-11T08:33:41.447Z,44
2017-01-11T08:34:21.935Z,44
2017-01-11T08:35:02.443Z,40
2017-01-11T08:35:42.934Z,52
2017-01-11T08:36:23.441Z,40
2017-01-11T08:37:03.925Z,44
2017-01-11T08:37:44.440Z,52
2017-01-11T08:38:24.922Z,52
2017-01-11T08:39:05.410Z,60
2017-01-11T08:39:45.910Z,56
2017-01-11T08:40:26.398Z,76
2017-01-11T08:41:06.892Z,100
2017-01-11T08:41:47.400Z,148
2017-01-11T08:42:27.958Z,192
2017-01-11T08:43:09.298Z,236
2017-01-11T08:43:49.831Z,168
2017-01-11T08:44:30.313Z,140
2017-01-11T08:45:10.804Z,116
2017-01-11T08:45:51.312Z,104
2017-01-11T08:46:31.803Z,120
2017-01-11T08:47:12.290Z,136
2017-01-11T08:47:52.793Z,120
2017-01-11T08:48:33.281Z,156
2017-01-11T08:49:13.768Z,148
2017-01-11T08:49:54.269Z,148
2017-01-11T08:50:34.759Z,152
2017-01-11T08:51:15.246Z,160
2017-01-11T08:51:55.892Z,200
2017-01-11T08:52:36.384Z,240
2017-01-11T08:53:16.900Z,272
2017-01-11T08:53:57.381Z,240
2017-01-11T08:54:37.870Z,196
2017-01-11T08:55:18.366Z,180
2017-01-11T08:55:58.857Z,156
2017-01-11T08:56:39.345Z,136
2017-01-11T08:57:19.838Z,112
2017-01-11T08:58:00.335Z,124
2017-01-11T08:58:40.824Z,144
2017-01-11T08:59:21.312Z,148
2017-01-11T09:00:01.855Z,164
2017-01-11T09:00:42.347Z,188
2017-01-11T09:01:22.840Z,216
2017-01-11T09:02:03.335Z,248
2017-01-11T09:02:43.829Z,216
2017-01-11T09:03:24.332Z,216
2017-01-11T09:04:04.823Z,244
2017-01-11T09:04:45.315Z,236
2017-01-11T09:05:25.820Z,204
2017-01-11T09:06:06.311Z,232
2017-01-11T09:06:46.810Z,212
2017-01-11T09:07:27.292Z,180
2017-01-11T09:08:07.782Z,220
2017-01-11T09:08:48.277Z,212
2017-01-11T09:09:28.777Z,212
2017-01-11T09:10:09.265Z,236
2017-01-11T09:10:49.739Z,248
2017-01-11T09:11:30.228Z,264
2017-01-11T09:12:11.485Z,284
2017-01-11T09:12:51.218Z,312
2017-01-11T09:13:31.707Z,248
2017-01-11T09:14:12.204Z,264
2017-01-11T09:14:52.707Z,264
2017-01-11T09:15:33.195Z,352
2017-01-11T09:16:13.677Z,328
2017-01-11T09:16:54.226Z,344
2017-01-11T09:17:34.718Z,460
2017-01-11T09:18:15.215Z,464
2017-01-11T09:18:55.707Z,568
2017-01-11T09:19:36.189Z,396
2017-01-11T09:20:16.678Z,332
2017-01-11T09:20:57.168Z,292
2017-01-11T09:21:37.656Z,268
2017-01-11T09:22:18.155Z,228
2017-01-11T09:22:58.663Z,216
2017-01-11T09:23:39.148Z,244
2017-01-11T09:24:19.637Z,288
2017-01-11T09:25:00.126Z,260
2017-01-11T09:25:40.644Z,260
2017-01-11T09:26:21.114Z,240
2017-01-11T09:27:01.608Z,232
2017-01-11T09:27:42.108Z,284
2017-01-11T09:28:55.026Z,276
2017-01-11T09:29:37.310Z,328
2017-01-11T09:30:17.800Z,312
2017-01-11T09:30:59.252Z,276
2017-01-11T09:31:39.859Z,340
2017-01-11T09:32:26.589Z,332
2017-01-11T09:33:11.778Z,312
2017-01-11T09:33:56.543Z,260
2017-01-11T09:34:37.443Z,284
2017-01-11T09:35:18.132Z,280
2017-01-11T09:35:59.093Z,332
2017-01-11T09:38:12.744Z,324
2017-01-11T09:38:55.886Z,264
2017-01-11T09:39:38.673Z,248
2017-01-11T09:40:19.170Z,328
2017-01-11T09:41:07.700Z,292
2017-01-11T09:41:48.191Z,328
2017-01-11T09:42:28.691Z,400
2017-01-11T09:43:09.184Z,416
2017-01-11T09:43:49.687Z,396
2017-01-11T09:44:30.162Z,400
2017-01-11T09:45:10.643Z,364
2017-01-11T09:45:51.141Z,424
2017-01-11T09:46:31.626Z,340
2017-01-11T09:47:12.105Z,376
2017-01-11T09:47:52.588Z,428
2017-01-11T09:48:33.068Z,436
2017-01-11T09:49:13.557Z,444
2017-01-11T09:49:54.035Z,448
2017-01-11T09:50:34.531Z,440
2017-01-11T09:51:15.027Z,488
2017-01-11T09:51:55.520Z,444
2017-01-11T09:52:36.024Z,464
2017-01-11T09:53:16.512Z,532
2017-01-11T09:53:57.025Z,524
2017-01-11T09:54:37.525Z,564
2017-01-11T09:55:18.025Z,536
2017-01-11T09:55:58.496Z,572
2017-01-11T09:56:39.024Z,580